Time;durP1;ratioP1;P1;durP2;ratioP2;P2;SDS_P1;SDS_P2;PMS_P1;PMS_P2;Temp;Humidity;BMP_temperature;BMP_pressure;BME280_temperature;BME280_humidity;BME280_pressure;Samples;Min_cycle;Max_cycle;Signal;HPM_P1;HPM_P2
2022/11/10 00:00:30;;;;;;;1.67;1.13;;;12.60;99.50;;;;;;5097199;28;20175;-47
2022/11/10 00:03:03;;;;;;;2.00;1.10;;;12.60;99.50;;;;;;5062827;28;20451;-49
2022/11/10 00:05:29;;;;;;;1.50;1.00;;;12.60;99.50;;;;;;5096462;28;20415;-46
2022/11/10 00:07:55;;;;;;;1.97;0.97;;;12.60;99.50;;;;;;5096593;28;20474;-46
2022/11/10 00:10:21;;;;;;;1.83;1.13;;;12.60;99.50;;;;;;5097522;28;20600;-45
2022/11/10 00:12:46;;;;;;;1.47;1.10;;;12.60;99.50;;;;;;5079036;28;20439;-47
2022/11/10 00:17:56;;;;;;;1.73;0.90;;;12.50;99.50;;;;;;5096821;28;20192;-45
2022/11/10 00:20:22;;;;;;;1.80;1.20;;;12.50;99.50;;;;;;5100200;28;20411;-47
2022/11/10 00:22:48;;;;;;;2.00;1.43;;;12.50;99.60;;;;;;5082693;28;20194;-46
2022/11/10 00:25:13;;;;;;;2.17;1.40;;;12.50;99.60;;;;;;5099919;28;20466;-44
2022/11/10 00:27:39;;;;;;;1.47;0.90;;;12.50;99.60;;;;;;5082628;28;20211;-47
2022/11/10 00:30:05;;;;;;;1.67;1.10;;;12.50;99.60;;;;;;5101048;28;20173;-44
2022/11/10 00:32:31;;;;;;;1.97;1.20;;;12.40;99.50;;;;;;5100499;28;20240;-45
2022/11/10 00:34:56;;;;;;;1.67;0.90;;;12.40;99.50;;;;;;5100302;28;20821;-48
2022/11/10 00:37:22;;;;;;;1.40;1.07;;;12.40;99.50;;;;;;5100532;28;20426;-47
2022/11/10 00:39:48;;;;;;;1.50;0.97;;;12.40;99.60;;;;;;5099593;28;20612;-45
2022/11/10 00:42:13;;;;;;;2.57;1.13;;;12.30;99.50;;;;;;5099698;28;20590;-46
2022/11/10 00:44:39;;;;;;;2.00;1.30;;;12.30;99.50;;;;;;5100216;28;20462;-47
2022/11/10 00:47:05;;;;;;;1.60;1.00;;;12.30;99.50;;;;;;5099061;28;20454;-47
2022/11/10 00:49:30;;;;;;;1.20;0.93;;;12.30;99.80;;;;;;5099063;28;20192;-45
2022/11/10 00:51:56;;;;;;;1.20;0.80;;;12.30;99.50;;;;;;5099852;28;20426;-45
2022/11/10 00:54:22;;;;;;;1.77;1.03;;;12.20;99.50;;;;;;5100023;28;20575;-45
2022/11/10 00:56:48;;;;;;;2.27;1.37;;;12.20;99.40;;;;;;5099897;28;20176;-45
2022/11/10 00:59:13;;;;;;;1.50;1.10;;;12.10;99.40;;;;;;5100144;28;20182;-46
2022/11/10 01:01:39;;;;;;;1.60;1.10;;;12.10;99.40;;;;;;5099923;28;20334;-47
2022/11/10 01:04:05;;;;;;;1.50;1.00;;;12.10;99.40;;;;;;5099920;28;20278;-45
2022/11/10 01:06:33;;;;;;;1.77;1.37;;;12.00;99.40;;;;;;5099488;28;20590;-45
2022/11/10 01:08:59;;;;;;;1.57;1.37;;;12.10;99.50;;;;;;5099711;28;20482;-44
2022/11/10 01:11:26;;;;;;;2.07;1.30;;;12.00;99.50;;;;;;5100182;28;20482;-46
2022/11/10 01:13:53;;;;;;;2.33;1.40;;;12.00;99.50;;;;;;5099647;28;20193;-44
2022/11/10 01:16:21;;;;;;;2.30;1.23;;;12.00;99.50;;;;;;5099845;28;20896;-47
2022/11/10 01:18:54;;;;;;;1.90;1.50;;;12.00;99.50;;;;;;5081856;28;20458;-47
2022/11/10 01:21:21;;;;;;;1.90;1.27;;;11.90;99.50;;;;;;5099180;28;20419;-46
2022/11/10 01:23:47;;;;;;;2.93;1.33;;;11.90;99.50;;;;;;5099294;28;20427;-46
2022/11/10 01:26:13;;;;;;;2.50;1.60;;;12.00;99.60;;;;;;5099549;28;20835;-46
2022/11/10 01:28:39;;;;;;;3.30;1.90;;;12.00;99.60;;;;;;5076608;28;20205;-48
2022/11/10 01:31:14;;;;;;;2.10;1.50;;;12.00;99.70;;;;;;5099208;28;20428;-45
2022/11/10 01:33:40;;;;;;;3.33;1.77;;;11.90;99.60;;;;;;5099571;28;20192;-46
2022/11/10 01:36:06;;;;;;;2.40;1.43;;;12.00;99.70;;;;;;5062630;28;20417;-45
2022/11/10 01:38:34;;;;;;;1.97;1.67;;;11.90;99.70;;;;;;5061379;28;20186;-45
2022/11/10 01:41:00;;;;;;;2.50;1.73;;;11.90;99.70;;;;;;5079449;28;20420;-47
2022/11/10 01:43:27;;;;;;;2.50;1.50;;;11.90;99.70;;;;;;5079203;28;20428;-47
2022/11/10 01:46:01;;;;;;;1.87;1.40;;;11.90;99.70;;;;;;5079083;28;20412;-45
2022/11/10 01:48:46;;;;;;;2.47;1.80;;;11.90;99.70;;;;;;5078851;28;20725;-46
2022/11/10 01:51:38;;;;;;;2.40;1.50;;;11.90;99.70;;;;;;5060931;28;20784;-46
2022/11/10 01:54:10;;;;;;;2.40;1.63;;;11.80;99.60;;;;;;5029448;28;20503;-45
2022/11/10 01:56:42;;;;;;;2.73;1.70;;;11.90;99.70;;;;;;5059200;28;20760;-44
2022/11/10 01:59:13;;;;;;;4.03;1.83;;;11.90;99.70;;;;;;5058353;28;20436;-45
2022/11/10 02:01:39;;;;;;;2.10;1.40;;;11.80;99.70;;;;;;5040728;28;20853;-44
2022/11/10 02:04:07;;;;;;;1.77;1.40;;;11.80;99.70;;;;;;5058758;28;20441;-46
2022/11/10 02:06:37;;;;;;;2.50;1.73;;;11.80;99.70;;;;;;5058759;28;20664;-44
2022/11/10 02:09:02;;;;;;;2.47;1.57;;;11.80;99.80;;;;;;5058228;28;20759;-44
2022/11/10 02:11:29;;;;;;;2.07;1.20;;;11.80;99.80;;;;;;5058528;28;20420;-47
2022/11/10 02:13:54;;;;;;;2.20;1.43;;;11.80;99.70;;;;;;5040924;28;20208;-46
2022/11/10 02:16:21;;;;;;;4.67;1.80;;;11.80;99.70;;;;;;5040074;28;20419;-46
2022/11/10 02:18:47;;;;;;;2.00;1.60;;;11.80;99.70;;;;;;5040435;28;20183;-47
2022/11/10 02:21:16;;;;;;;4.10;1.60;;;11.80;99.80;;;;;;5057779;28;20475;-46
2022/11/10 02:23:47;;;;;;;2.07;1.63;;;11.80;99.80;;;;;;5058122;28;20438;-45
2022/11/10 02:26:15;;;;;;;3.10;1.73;;;11.70;99.70;;;;;;5058479;28;20401;-49
2022/11/10 02:28:40;;;;;;;2.70;1.40;;;11.70;99.80;;;;;;5058231;28;20576;-45
2022/11/10 02:31:08;;;;;;;2.10;1.50;;;11.60;99.70;;;;;;5058373;28;20447;-43
2022/11/10 02:33:34;;;;;;;2.33;1.53;;;11.60;99.70;;;;;;5058463;28;20506;-46
2022/11/10 02:36:00;;;;;;;2.30;1.67;;;11.60;99.70;;;;;;5058310;28;20696;-45
2022/11/10 02:38:25;;;;;;;3.10;1.50;;;11.50;99.60;;;;;;5057623;28;20424;-44
2022/11/10 02:40:51;;;;;;;3.73;1.70;;;11.50;99.60;;;;;;5058065;28;20182;-46
2022/11/10 02:43:17;;;;;;;1.73;1.13;;;11.40;99.50;;;;;;5057386;28;20189;-45
2022/11/10 02:45:43;;;;;;;3.27;1.90;;;11.40;99.50;;;;;;5040178;28;20182;-46
2022/11/10 02:48:10;;;;;;;2.03;1.67;;;11.40;99.40;;;;;;5057854;28;20483;-48
2022/11/10 02:50:35;;;;;;;2.60;1.83;;;11.40;99.40;;;;;;5024137;28;20436;-45
2022/11/10 02:53:01;;;;;;;2.70;1.57;;;11.30;99.30;;;;;;5057731;28;20436;-46
2022/11/10 02:55:27;;;;;;;2.80;2.00;;;11.30;99.30;;;;;;5058177;28;20187;-46
2022/11/10 02:57:52;;;;;;;5.33;2.10;;;11.20;99.30;;;;;;5040219;28;20471;-47
2022/11/10 03:00:18;;;;;;;2.70;1.50;;;11.20;99.30;;;;;;5023501;28;20558;-48
2022/11/10 03:02:44;;;;;;;2.77;2.10;;;11.20;99.30;;;;;;5057919;28;20182;-45
2022/11/10 03:05:10;;;;;;;2.40;1.50;;;11.10;99.20;;;;;;5057473;28;20179;-46
2022/11/10 03:07:35;;;;;;;1.60;1.40;;;11.10;99.10;;;;;;5057540;28;20214;-47
2022/11/10 03:10:01;;;;;;;2.33;1.87;;;11.10;99.10;;;;;;5057748;28;20430;-47
2022/11/10 03:12:27;;;;;;;2.67;1.73;;;11.00;99.00;;;;;;5040188;28;20269;-49
2022/11/10 03:14:53;;;;;;;8.13;1.80;;;11.00;99.00;;;;;;5057262;28;20437;-46
2022/11/10 03:17:18;;;;;;;3.77;1.70;;;10.90;98.90;;;;;;5057642;28;20178;-45
2022/11/10 03:19:44;;;;;;;2.20;1.60;;;10.90;98.90;;;;;;5057594;28;20228;-46
2022/11/10 03:22:09;;;;;;;2.37;1.50;;;10.80;98.80;;;;;;5057008;28;20541;-49
2022/11/10 03:24:35;;;;;;;1.90;1.47;;;10.80;98.80;;;;;;5057416;28;20190;-47
2022/11/10 03:27:01;;;;;;;2.97;1.90;;;10.70;98.70;;;;;;5057069;28;20185;-46
2022/11/10 03:29:26;;;;;;;1.80;1.60;;;10.70;98.60;;;;;;5057392;28;20180;-47
2022/11/10 03:31:52;;;;;;;2.53;1.97;;;10.70;98.60;;;;;;5057306;28;20170;-46
2022/11/10 03:34:17;;;;;;;3.30;2.33;;;10.60;98.50;;;;;;5039807;28;20182;-45
2022/11/10 03:36:43;;;;;;;1.93;1.70;;;10.60;98.50;;;;;;5057515;28;20174;-45
2022/11/10 03:39:09;;;;;;;2.07;1.40;;;10.50;98.40;;;;;;5057240;28;20669;-45
2022/11/10 03:41:35;;;;;;;4.10;1.93;;;10.50;98.40;;;;;;5057059;28;20231;-46
2022/11/10 03:44:00;;;;;;;3.50;1.83;;;10.40;98.30;;;;;;5057621;28;20282;-48
2022/11/10 03:46:26;;;;;;;2.57;1.87;;;10.40;98.30;;;;;;5056126;28;20235;-46
2022/11/10 03:48:52;;;;;;;3.87;2.00;;;10.30;98.30;;;;;;5056451;28;20295;-47
2022/11/10 03:51:17;;;;;;;3.50;1.80;;;10.30;98.20;;;;;;5056889;28;20167;-46
2022/11/10 03:53:43;;;;;;;1.93;1.53;;;10.30;98.20;;;;;;5059628;28;20292;-46
2022/11/10 03:56:08;;;;;;;2.60;1.90;;;10.20;98.20;;;;;;5043532;28;20174;-46
2022/11/10 03:58:34;;;;;;;1.87;1.50;;;10.20;98.10;;;;;;5060955;28;20565;-46
2022/11/10 04:01:00;;;;;;;1.70;1.60;;;10.20;98.10;;;;;;5060283;28;20683;-45
2022/11/10 04:03:25;;;;;;;2.73;2.07;;;10.10;98.00;;;;;;5060223;28;20178;-48
2022/11/10 04:09:01;;;;;;;3.20;2.10;;;10.00;97.90;;;;;;5000021;28;20224;-45
2022/11/10 04:16:58;;;;;;;4.00;2.20;;;9.90;98.50;;;;;;5079951;28;20484;-44
2022/11/10 04:19:24;;;;;;;2.60;1.83;;;9.90;98.40;;;;;;5079956;28;20837;-45
2022/11/10 04:21:50;;;;;;;2.57;2.30;;;9.80;98.40;;;;;;5080041;28;20224;-44
2022/11/10 04:24:16;;;;;;;4.50;2.30;;;9.80;98.40;;;;;;5079854;28;20842;-45
2022/11/10 04:26:42;;;;;;;5.23;2.30;;;9.80;98.40;;;;;;5079678;28;20188;-45
2022/11/10 04:29:09;;;;;;;2.83;2.30;;;9.80;98.40;;;;;;5079939;28;20535;-47
2022/11/10 04:31:37;;;;;;;3.73;2.50;;;9.70;98.30;;;;;;5079986;28;20415;-45
2022/11/10 04:34:05;;;;;;;2.90;2.30;;;9.70;98.30;;;;;;5080624;28;20427;-45
2022/11/10 04:36:32;;;;;;;4.57;2.40;;;9.70;98.30;;;;;;5079804;28;20431;-44
2022/11/10 04:38:58;;;;;;;5.17;2.20;;;9.70;98.40;;;;;;5080348;28;20710;-44
2022/11/10 04:41:26;;;;;;;2.97;1.77;;;9.60;98.30;;;;;;5080278;28;20403;-46
2022/11/10 04:43:52;;;;;;;3.03;2.00;;;9.60;98.30;;;;;;5079954;28;20209;-45
2022/11/10 04:46:25;;;;;;;3.70;2.17;;;9.60;98.30;;;;;;5061954;28;20423;-46
2022/11/10 04:48:51;;;;;;;3.37;2.10;;;9.60;98.30;;;;;;5077540;28;20574;-46
2022/11/10 04:51:18;;;;;;;2.20;1.70;;;9.50;98.30;;;;;;5078776;28;20821;-51
2022/11/10 04:53:43;;;;;;;3.07;2.07;;;9.50;98.30;;;;;;5087419;28;20472;-47
2022/11/10 04:56:17;;;;;;;3.10;2.13;;;9.50;98.30;;;;;;5064343;28;20798;-45
2022/11/10 04:58:42;;;;;;;2.93;1.87;;;9.40;98.20;;;;;;5098984;28;20225;-43
2022/11/10 05:01:13;;;;;;;2.67;2.20;;;9.40;98.20;;;;;;5081237;28;20422;-46
2022/11/10 05:03:39;;;;;;;3.07;2.73;;;9.40;98.20;;;;;;5098962;28;20525;-46
2022/11/10 05:06:05;;;;;;;3.20;1.73;;;9.40;98.20;;;;;;5098595;28;20499;-51
2022/11/10 05:08:31;;;;;;;3.43;2.10;;;9.30;98.20;;;;;;5098750;28;20989;-46
2022/11/10 05:10:56;;;;;;;3.90;2.40;;;9.30;98.10;;;;;;5099626;28;20183;-47
2022/11/10 05:13:22;;;;;;;3.50;2.63;;;9.30;98.10;;;;;;5100073;28;20183;-45
2022/11/10 05:15:47;;;;;;;3.50;2.40;;;9.30;98.10;;;;;;5099267;28;20235;-47
2022/11/10 05:18:13;;;;;;;3.10;2.50;;;9.20;98.10;;;;;;5099899;28;20188;-46
2022/11/10 05:20:39;;;;;;;5.23;2.37;;;9.20;98.00;;;;;;5098950;28;20448;-46
2022/11/10 05:25:49;;;;;;;3.40;2.80;;;9.10;98.00;;;;;;5099031;28;20471;-46
2022/11/10 05:28:15;;;;;;;3.50;2.17;;;9.10;98.00;;;;;;5089786;28;20586;-46
2022/11/10 05:30:41;;;;;;;3.50;2.00;;;9.10;97.90;;;;;;5063508;28;20211;-48
2022/11/10 05:33:07;;;;;;;2.80;2.53;;;9.00;97.80;;;;;;5091790;28;20840;-44
2022/11/10 05:35:34;;;;;;;2.90;2.40;;;9.00;97.80;;;;;;5069920;28;20558;-45
2022/11/10 05:38:00;;;;;;;2.73;2.23;;;9.00;97.80;;;;;;5038454;28;20201;-46
2022/11/10 05:40:26;;;;;;;4.80;2.00;;;8.90;97.70;;;;;;5056597;28;20442;-43
2022/11/10 05:42:53;;;;;;;3.20;1.90;;;8.90;97.80;;;;;;5055924;28;20247;-45
2022/11/10 05:45:21;;;;;;;2.73;1.90;;;8.90;97.80;;;;;;5062493;28;20444;-45
2022/11/10 05:47:47;;;;;;;2.97;1.90;;;8.90;97.80;;;;;;5068131;28;20485;-45
2022/11/10 05:50:13;;;;;;;2.30;1.83;;;8.80;97.70;;;;;;5068335;28;20879;-46
2022/11/10 05:52:44;;;;;;;4.20;2.00;;;8.80;98.10;;;;;;5054339;28;20729;-48
2022/11/10 05:55:11;;;;;;;2.43;2.13;;;8.80;97.70;;;;;;5074094;28;20433;-47
2022/11/10 05:57:37;;;;;;;4.97;2.37;;;8.80;97.70;;;;;;5070333;28;20837;-46
2022/11/10 06:00:04;;;;;;;2.50;1.87;;;8.70;97.60;;;;;;5072065;28;20422;-45
2022/11/10 06:02:30;;;;;;;3.23;2.30;;;8.70;97.60;;;;;;5053831;28;20190;-44
2022/11/10 06:04:55;;;;;;;3.37;2.20;;;8.70;97.60;;;;;;5072405;28;20412;-44
2022/11/10 06:07:21;;;;;;;3.90;2.27;;;8.70;97.50;;;;;;5073972;28;20614;-45
2022/11/10 06:09:47;;;;;;;2.87;2.07;;;8.60;97.50;;;;;;5071832;28;20173;-43
2022/11/10 06:12:13;;;;;;;4.73;2.00;;;8.60;97.50;;;;;;5074723;28;20177;-44
2022/11/10 06:14:38;;;;;;;3.43;1.67;;;8.50;97.50;;;;;;5073052;28;20412;-43
2022/11/10 06:17:04;;;;;;;3.07;2.33;;;8.40;97.50;;;;;;5072709;28;20845;-47
2022/11/10 06:19:30;;;;;;;4.80;2.00;;;8.40;97.70;;;;;;5067934;28;20451;-44
2022/11/10 06:21:55;;;;;;;2.40;1.47;;;8.30;97.80;;;;;;5067829;28;20546;-43
2022/11/10 06:24:21;;;;;;;2.30;1.83;;;8.20;97.90;;;;;;5069619;28;20170;-44
2022/11/10 06:26:46;;;;;;;2.60;2.00;;;8.20;98.00;;;;;;5070341;28;20242;-43
2022/11/10 06:29:12;;;;;;;5.27;2.50;;;8.20;98.10;;;;;;5070585;28;20296;-43
2022/11/10 06:31:38;;;;;;;2.60;2.40;;;8.20;98.10;;;;;;5068083;28;20590;-44
2022/11/10 06:34:03;;;;;;;3.60;2.83;;;8.10;98.10;;;;;;5069832;28;20188;-45
2022/11/10 06:36:29;;;;;;;3.23;2.40;;;8.10;98.10;;;;;;5067111;28;20186;-45
2022/11/10 06:38:54;;;;;;;2.77;2.43;;;8.10;98.20;;;;;;5067510;28;20538;-43
2022/11/10 06:41:20;;;;;;;3.27;2.40;;;8.20;98.30;;;;;;5070598;28;20173;-44
2022/11/10 06:43:46;;;;;;;4.03;2.97;;;8.20;98.20;;;;;;5071047;28;20200;-43
2022/11/10 06:46:11;;;;;;;2.40;2.10;;;8.20;98.20;;;;;;5071024;28;20543;-42
2022/11/10 06:48:38;;;;;;;3.00;2.33;;;8.30;98.20;;;;;;5084822;28;20222;-45
2022/11/10 06:51:04;;;;;;;5.53;3.57;;;8.30;98.10;;;;;;5090201;28;20173;-45
2022/11/10 06:53:30;;;;;;;4.40;3.63;;;8.40;98.10;;;;;;5082406;28;20938;-45
2022/11/10 06:55:55;;;;;;;4.57;3.53;;;8.50;98.10;;;;;;5091583;28;20444;-46
2022/11/10 06:58:21;;;;;;;4.63;3.53;;;8.70;98.10;;;;;;5081300;28;20186;-42
2022/11/10 07:00:46;;;;;;;4.07;3.00;;;8.90;98.00;;;;;;5055220;28;20483;-43
2022/11/10 07:03:13;;;;;;;5.80;3.40;;;9.20;97.80;;;;;;5071882;28;20185;-47
2022/11/10 07:05:39;;;;;;;5.27;3.83;;;9.40;97.50;;;;;;5072477;28;20179;-44
2022/11/10 07:08:12;;;;;;;7.03;4.30;;;9.70;97.20;;;;;;5071263;28;21109;-46
2022/11/10 07:10:38;;;;;;;4.97;4.43;;;10.10;96.20;;;;;;5073033;28;20173;-44
2022/11/10 07:13:04;;;;;;;5.33;4.10;;;10.40;95.90;;;;;;5073452;28;20853;-44
2022/11/10 07:15:30;;;;;;;4.70;4.20;;;10.80;95.50;;;;;;5073954;28;20168;-44
2022/11/10 07:17:56;;;;;;;5.17;4.10;;;11.30;95.10;;;;;;5054665;28;20443;-42
2022/11/10 07:20:22;;;;;;;5.53;4.43;;;11.80;94.50;;;;;;5072629;28;20715;-43
2022/11/10 07:22:48;;;;;;;4.63;3.80;;;12.20;93.90;;;;;;5078500;28;20434;-45
2022/11/10 07:25:14;;;;;;;7.73;4.70;;;12.70;93.40;;;;;;5073513;28;20409;-45
2022/11/10 07:27:39;;;;;;;6.10;5.00;;;13.20;92.90;;;;;;5074206;28;20539;-44
2022/11/10 07:30:06;;;;;;;6.63;3.90;;;13.70;92.50;;;;;;5077696;28;20678;-44
2022/11/10 07:32:32;;;;;;;5.70;4.27;;;14.20;91.90;;;;;;5077176;28;20179;-43
2022/11/10 07:34:57;;;;;;;6.00;4.50;;;14.70;91.50;;;;;;5077918;28;20695;-43
2022/11/10 07:37:23;;;;;;;6.23;4.37;;;15.10;90.90;;;;;;5078424;28;20416;-42
2022/11/10 07:39:49;;;;;;;4.60;3.70;;;15.60;90.50;;;;;;5078005;28;20536;-46
2022/11/10 07:42:14;;;;;;;5.80;4.70;;;16.10;90.00;;;;;;5080053;28;20181;-48
2022/11/10 07:44:40;;;;;;;4.50;4.03;;;16.50;88.90;;;;;;5078445;28;20178;-43
2022/11/10 07:47:06;;;;;;;5.07;4.57;;;17.00;87.80;;;;;;5078299;28;20181;-45
2022/11/10 07:49:31;;;;;;;4.97;4.30;;;17.40;86.40;;;;;;5077692;28;20178;-44
2022/11/10 07:51:57;;;;;;;3.90;3.37;;;17.70;85.20;;;;;;5077637;28;20180;-44
2022/11/10 07:54:23;;;;;;;5.23;3.73;;;17.90;84.40;;;;;;5075997;28;20226;-44
2022/11/10 07:56:48;;;;;;;5.33;3.40;;;18.20;84.00;;;;;;5075217;28;20197;-43
2022/11/10 07:59:14;;;;;;;3.80;2.87;;;18.60;83.50;;;;;;5075504;28;20565;-43
2022/11/10 08:01:39;;;;;;;4.13;3.30;;;19.00;82.30;;;;;;5077295;28;20332;-44
2022/11/10 08:04:05;;;;;;;4.13;3.20;;;19.60;81.30;;;;;;5077423;28;20259;-44
2022/11/10 08:06:31;;;;;;;3.33;3.00;;;20.10;79.70;;;;;;5076893;28;20179;-45
2022/11/10 08:08:57;;;;;;;5.07;2.90;;;20.70;78.20;;;;;;5076870;28;20600;-44
2022/11/10 08:11:22;;;;;;;4.10;2.90;;;21.30;76.40;;;;;;5077443;28;20408;-43
2022/11/10 08:13:48;;;;;;;3.17;2.87;;;21.90;74.30;;;;;;5075026;28;20595;-43
2022/11/10 08:16:13;;;;;;;3.13;2.60;;;22.60;72.10;;;;;;5078568;28;20237;-46
2022/11/10 08:18:39;;;;;;;2.53;2.30;;;23.30;70.00;;;;;;5078101;28;20254;-44
2022/11/10 08:21:05;;;;;;;3.07;2.00;;;23.90;67.20;;;;;;5077573;28;20172;-44
2022/11/10 08:23:31;;;;;;;3.10;2.00;;;24.70;64.70;;;;;;5077008;28;20257;-44
2022/11/10 08:25:58;;;;;;;4.63;2.50;;;25.40;61.40;;;;;;5077202;28;20443;-47
2022/11/10 08:28:24;;;;;;;5.77;1.87;;;26.00;59.00;;;;;;5074809;28;20528;-44
2022/11/10 08:30:55;;;;;;;4.03;1.93;;;26.60;57.10;;;;;;5074475;28;20418;-43
2022/11/10 08:33:21;;;;;;;3.70;2.33;;;27.20;55.30;;;;;;5071611;28;20181;-46
2022/11/10 08:35:48;;;;;;;2.90;2.03;;;27.80;53.70;;;;;;5073239;28;20815;-42
2022/11/10 08:38:16;;;;;;;3.83;2.20;;;28.40;52.40;;;;;;5074581;28;20183;-46
2022/11/10 08:40:43;;;;;;;3.77;2.30;;;29.00;50.90;;;;;;5073008;28;20885;-46
2022/11/10 08:43:12;;;;;;;2.63;1.83;;;29.60;49.30;;;;;;5073520;28;20430;-44
2022/11/10 08:45:40;;;;;;;3.37;2.40;;;30.20;47.60;;;;;;5075945;28;20393;-43
2022/11/10 08:48:09;;;;;;;3.30;2.00;;;30.90;46.50;;;;;;5073426;28;20479;-44
2022/11/10 08:50:36;;;;;;;4.50;2.30;;;31.60;45.30;;;;;;5066246;28;20431;-44
2022/11/10 08:53:05;;;;;;;3.57;2.57;;;32.20;44.00;;;;;;5081639;28;20517;-44
2022/11/10 08:55:33;;;;;;;3.17;2.30;;;32.80;42.70;;;;;;5059981;28;20825;-45
2022/11/10 08:58:00;;;;;;;3.20;2.43;;;33.40;41.50;;;;;;5088114;28;20433;-45
2022/11/10 09:00:27;;;;;;;3.70;2.40;;;34.20;40.10;;;;;;5095594;28;20424;-45
2022/11/10 09:02:54;;;;;;;6.57;2.43;;;34.90;38.70;;;;;;5095445;28;20889;-45
2022/11/10 09:05:19;;;;;;;2.40;1.90;;;35.60;37.40;;;;;;5078695;28;20399;-44
2022/11/10 09:07:47;;;;;;;5.23;2.43;;;36.30;35.70;;;;;;5097118;28;20467;-46
2022/11/10 09:10:13;;;;;;;3.90;2.07;;;36.90;34.70;;;;;;5078696;28;20172;-46
2022/11/10 09:12:42;;;;;;;6.03;2.00;;;37.30;33.20;;;;;;5078046;28;20686;-43
2022/11/10 09:15:09;;;;;;;3.53;1.60;;;37.60;31.80;;;;;;5098513;28;20409;-43
2022/11/10 09:17:35;;;;;;;4.80;1.70;;;37.80;30.70;;;;;;5096959;28;20426;-45
2022/11/10 09:20:01;;;;;;;4.10;1.40;;;38.00;30.70;;;;;;5096635;28;20424;-45
2022/11/10 09:22:27;;;;;;;3.57;1.10;;;38.40;31.10;;;;;;5095403;28;20413;-44
2022/11/10 09:24:52;;;;;;;3.10;1.60;;;38.80;31.60;;;;;;5095107;28;20181;-46
2022/11/10 09:27:18;;;;;;;2.83;1.10;;;39.10;31.30;;;;;;5079039;28;20611;-46
2022/11/10 09:29:44;;;;;;;2.50;1.03;;;39.50;31.40;;;;;;5097226;28;20180;-43
2022/11/10 09:32:09;;;;;;;2.43;1.30;;;39.50;31.10;;;;;;5096979;28;20180;-42
2022/11/10 09:34:35;;;;;;;2.17;1.13;;;39.60;30.60;;;;;;5096987;28;20177;-44
2022/11/10 09:37:01;;;;;;;2.40;1.33;;;39.90;30.10;;;;;;5096155;28;20305;-44
2022/11/10 09:39:26;;;;;;;3.73;1.40;;;40.00;29.80;;;;;;5093599;28;20703;-45
2022/11/10 09:41:52;;;;;;;4.40;1.30;;;40.30;29.90;;;;;;5095289;28;20652;-42
2022/11/10 09:44:35;;;;;;;2.93;1.23;;;40.40;29.30;;;;;;5096948;28;20244;-46
2022/11/10 09:47:14;;;;;;;4.43;1.40;;;40.50;29.30;;;;;;5078484;28;20556;-45
2022/11/10 09:49:49;;;;;;;3.10;1.17;;;40.30;29.40;;;;;;5096316;28;20440;-43
2022/11/10 09:52:15;;;;;;;2.50;1.50;;;40.30;28.40;;;;;;5091855;28;20461;-46
2022/11/10 09:54:56;;;;;;;3.03;1.30;;;40.10;28.30;;;;;;5075545;28;20475;-46
2022/11/10 09:57:24;;;;;;;3.27;1.20;;;40.00;28.70;;;;;;5096516;28;20529;-43
2022/11/10 09:59:53;;;;;;;2.30;1.17;;;39.90;28.80;;;;;;5078866;28;20400;-42
2022/11/10 10:02:45;;;;;;;2.00;1.10;;;39.50;29.30;;;;;;5062177;28;20423;-52
2022/11/10 10:05:34;;;;;;;2.03;1.13;;;39.40;28.80;;;;;;5089985;28;20421;-44
2022/11/10 10:08:01;;;;;;;3.03;1.30;;;39.00;28.60;;;;;;5080326;28;20867;-43
2022/11/10 10:10:53;;;;;;;2.37;1.40;;;38.80;28.90;;;;;;5098055;28;20415;-43
2022/11/10 10:13:47;;;;;;;2.20;1.27;;;38.50;29.30;;;;;;5091693;28;20437;-44
2022/11/10 10:16:29;;;;;;;6.30;1.60;;;38.10;28.90;;;;;;5063045;28;20618;-43
2022/11/10 10:19:19;;;;;;;3.73;1.53;;;37.70;28.80;;;;;;5096445;28;20467;-45
2022/11/10 10:22:15;;;;;;;2.87;1.50;;;37.50;29.30;;;;;;5096229;28;20413;-46
2022/11/10 10:24:41;;;;;;;3.27;1.20;;;37.40;29.50;;;;;;5078968;28;20777;-45
2022/11/10 10:27:11;;;;;;;2.87;1.20;;;37.40;29.60;;;;;;5078064;28;20460;-44
2022/11/10 10:29:41;;;;;;;4.93;1.80;;;37.40;29.30;;;;;;5080162;28;20188;-45
2022/11/10 10:32:12;;;;;;;3.27;1.30;;;37.50;29.30;;;;;;5079097;28;20422;-44
2022/11/10 10:34:44;;;;;;;1.93;1.30;;;37.90;29.80;;;;;;5063317;28;20434;-44
2022/11/10 10:37:50;;;;;;;1.87;1.10;;;38.20;29.60;;;;;;5080309;28;20413;-45
2022/11/10 10:40:20;;;;;;;3.20;1.10;;;38.80;28.50;;;;;;5085855;28;20415;-46
2022/11/10 10:42:46;;;;;;;2.57;1.20;;;39.40;28.50;;;;;;5088780;28;20503;-44
2022/11/10 10:45:23;;;;;;;3.00;1.50;;;39.70;28.60;;;;;;5093549;28;20674;-45
2022/11/10 10:47:51;;;;;;;2.33;1.53;;;40.70;27.70;;;;;;5074546;28;20540;-45
2022/11/10 10:50:33;;;;;;;1.67;1.27;;;41.70;26.90;;;;;;5076915;28;20797;-44
2022/11/10 10:53:19;;;;;;;2.23;1.23;;;42.50;26.60;;;;;;5084024;28;20454;-46
2022/11/10 10:55:47;;;;;;;1.83;1.10;;;43.30;26.40;;;;;;5064701;28;20459;-47
2022/11/10 10:58:19;;;;;;;2.47;0.90;;;43.60;26.20;;;;;;5067778;28;20536;-44
2022/11/10 11:00:47;;;;;;;2.47;1.00;;;43.60;26.10;;;;;;5085861;28;20427;-45
2022/11/10 11:03:37;;;;;;;2.50;1.13;;;44.20;26.30;;;;;;5093735;28;20509;-47
2022/11/10 11:06:18;;;;;;;2.17;1.40;;;44.70;26.10;;;;;;5071513;28;20435;-48
2022/11/10 11:08:55;;;;;;;2.07;1.20;;;45.00;25.70;;;;;;5074414;28;20466;-47
2022/11/10 11:11:33;;;;;;;2.70;1.10;;;44.50;26.10;;;;;;5074941;28;20657;-43
2022/11/10 11:14:21;;;;;;;1.37;0.97;;;45.00;25.80;;;;;;5074372;28;20706;-49
2022/11/10 11:16:49;;;;;;;1.53;0.83;;;45.40;26.10;;;;;;5075534;28;20427;-44
2022/11/10 11:19:18;;;;;;;1.70;1.00;;;45.50;25.20;;;;;;5074702;28;20469;-46
2022/11/10 11:22:18;;;;;;;2.40;1.17;;;45.60;25.30;;;;;;5071894;28;20406;-45
2022/11/10 11:25:08;;;;;;;1.80;1.00;;;45.80;25.10;;;;;;5074663;28;20412;-45
2022/11/10 11:27:56;;;;;;;3.37;1.07;;;46.00;25.30;;;;;;5073805;28;20412;-43
2022/11/10 11:30:23;;;;;;;2.00;1.20;;;45.80;24.90;;;;;;5072919;28;20775;-43
2022/11/10 11:32:58;;;;;;;4.30;1.40;;;45.70;24.30;;;;;;5073777;28;20495;-44
2022/11/10 11:35:23;;;;;;;2.10;1.40;;;46.10;24.00;;;;;;5072295;28;20421;-44
2022/11/10 11:38:10;;;;;;;1.47;0.97;;;46.40;23.70;;;;;;5073617;28;20461;-46
2022/11/10 11:40:42;;;;;;;2.70;1.40;;;47.00;23.60;;;;;;5073666;28;20217;-44
2022/11/10 11:43:38;;;;;;;2.70;1.47;;;47.30;23.20;;;;;;5077223;28;20843;-44
2022/11/10 11:46:17;;;;;;;2.07;1.30;;;47.80;23.00;;;;;;5091235;28;20430;-46
2022/11/10 11:49:20;;;;;;;2.37;1.17;;;48.00;23.40;;;;;;5064893;28;20482;-48
2022/11/10 11:52:18;;;;;;;1.87;1.20;;;48.20;22.50;;;;;;5086935;28;20511;-47
2022/11/10 11:55:12;;;;;;;3.00;1.37;;;48.20;22.30;;;;;;5074217;28;20470;-47
2022/11/10 11:58:01;;;;;;;2.67;1.33;;;48.00;22.10;;;;;;5044178;28;20513;-46
2022/11/10 12:00:33;;;;;;;1.97;1.23;;;48.20;22.30;;;;;;5032930;28;20420;-46
2022/11/10 12:03:08;;;;;;;4.03;1.10;;;47.80;22.80;;;;;;5072380;28;20422;-45
2022/11/10 12:05:42;;;;;;;2.50;1.30;;;47.80;22.50;;;;;;5071264;28;20410;-45
2022/11/10 12:08:23;;;;;;;1.70;1.10;;;47.80;22.40;;;;;;5070919;28;20528;-44
2022/11/10 12:11:12;;;;;;;1.60;1.10;;;47.90;22.30;;;;;;5066492;28;20431;-45
2022/11/10 12:13:44;;;;;;;1.90;1.03;;;47.50;22.50;;;;;;5059302;28;20452;-46
2022/11/10 12:16:20;;;;;;;2.63;1.30;;;47.10;22.60;;;;;;5075556;28;20419;-44
2022/11/10 12:19:11;;;;;;;2.70;1.23;;;46.80;22.70;;;;;;5074653;28;20853;-46
2022/11/10 12:21:58;;;;;;;2.00;1.20;;;46.40;22.90;;;;;;5034303;28;20420;-47
2022/11/10 12:24:49;;;;;;;2.37;1.50;;;45.70;23.00;;;;;;5076671;28;20413;-44
2022/11/10 12:27:27;;;;;;;2.17;1.13;;;45.60;22.70;;;;;;5074031;28;20546;-44
2022/11/10 12:29:55;;;;;;;1.60;1.23;;;45.60;22.50;;;;;;5071446;28;20848;-44
2022/11/10 12:32:32;;;;;;;2.00;1.30;;;46.00;22.40;;;;;;5073716;28;20495;-44
2022/11/10 12:35:19;;;;;;;3.00;1.30;;;46.10;22.50;;;;;;5073738;28;20907;-46
2022/11/10 12:38:04;;;;;;;3.00;1.47;;;46.60;22.50;;;;;;5061319;28;20903;-45
2022/11/10 12:40:38;;;;;;;1.60;1.20;;;47.00;22.60;;;;;;5057023;28;20443;-44
2022/11/10 12:43:26;;;;;;;3.07;1.20;;;47.10;22.50;;;;;;5056490;28;20780;-44
2022/11/10 12:45:56;;;;;;;2.07;1.30;;;47.20;22.60;;;;;;5061987;28;20428;-46
2022/11/10 12:48:25;;;;;;;1.83;1.40;;;47.40;22.40;;;;;;5042901;28;20500;-44
2022/11/10 12:51:11;;;;;;;2.10;1.10;;;47.10;22.20;;;;;;5076710;28;20528;-45
2022/11/10 12:53:38;;;;;;;2.40;1.60;;;47.00;22.30;;;;;;5071339;28;20752;-45
2022/11/10 12:56:27;;;;;;;2.37;1.30;;;46.60;22.40;;;;;;5095078;28;20707;-44
2022/11/10 12:59:19;;;;;;;1.83;1.30;;;45.80;22.70;;;;;;5095122;28;20498;-44
2022/11/10 13:01:47;;;;;;;4.30;1.13;;;45.70;22.60;;;;;;5092792;28;20411;-46
2022/11/10 13:04:13;;;;;;;3.07;1.30;;;46.00;22.40;;;;;;5094328;28;20413;-44
2022/11/10 13:06:55;;;;;;;2.50;0.93;;;46.20;22.50;;;;;;5093685;28;20720;-44
2022/11/10 13:09:26;;;;;;;1.73;1.10;;;45.90;22.50;;;;;;5097077;28;20521;-44
2022/11/10 13:12:09;;;;;;;2.90;1.47;;;46.10;22.60;;;;;;5095982;28;20414;-44
2022/11/10 13:14:35;;;;;;;3.33;1.70;;;46.30;22.40;;;;;;5095913;28;20420;-46